Hollis, Oklahoma
Current Conditions -  °F | °C
As of 1:53 AM on Friday 28 Nov 2014 (Local Time) from KCDS Reporting Station
Clear Clear  
Wind Chill: -1°   Ceiling: Unl
Heat Index:   Visibility: 10mi
Dew Point: -2°   Wind: 9mph
Humidity: 73%   Direction: 180°S
Pressure: 30.18"   Gusts: NA
Location:  34.69°N, 99.91°W
Report Text: KCDS 280753Z AUTO 18008KT 10SM CLR 03/M02 A3018 RMK AO2 SLP220 T00281017
Loading
Personal Weather Stations






























Interactive Weather Map New forecast layout! Learn more

10-Day Weather Forecast

Advertisements
Track Severe Weather on mobile